Time;durP1;ratioP1;P1;durP2;ratioP2;P2;SDS_P1;SDS_P2;PMS_P1;PMS_P2;Temp;Humidity;BMP_temperature;BMP_pressure;BME280_temperature;BME280_humidity;BME280_pressure;Samples;Min_cycle;Max_cycle;Signal;HPM_P1;HPM_P2
2022/04/18 00:01:55;;;;;;;15.70;9.60;;;8.10;72.80;;;;;;4918639;29;20058;-80
2022/04/18 00:04:21;;;;;;;17.92;10.15;;;8.10;73.20;;;;;;4951835;29;20039;-76
2022/04/18 00:06:47;;;;;;;16.77;9.82;;;8.00;75.20;;;;;;4934399;29;20058;-77
2022/04/18 00:09:13;;;;;;;18.05;10.80;;;8.00;75.40;;;;;;4951835;29;20571;-77
2022/04/18 00:11:39;;;;;;;16.10;9.23;;;8.00;76.40;;;;;;4951746;29;20487;-77
2022/04/18 00:14:05;;;;;;;19.70;10.50;;;7.90;76.90;;;;;;4966742;28;20051;-77
2022/04/18 00:16:31;;;;;;;18.88;10.60;;;7.90;78.10;;;;;;4951057;28;20055;-77
2022/04/18 00:18:57;;;;;;;27.92;11.60;;;8.20;78.20;;;;;;4951949;28;20050;-78
2022/04/18 00:21:23;;;;;;;19.05;10.60;;;7.80;78.60;;;;;;4937806;29;20419;-77
2022/04/18 00:23:49;;;;;;;17.13;10.88;;;7.80;80.20;;;;;;4955337;29;20122;-76
2022/04/18 00:26:15;;;;;;;18.77;11.52;;;7.80;80.90;;;;;;4954764;29;20047;-78
2022/04/18 00:28:41;;;;;;;18.05;11.07;;;7.70;82.20;;;;;;4921680;29;20114;-75
2022/04/18 00:31:07;;;;;;;19.30;11.48;;;7.70;82.80;;;;;;4954781;29;20039;-77
2022/04/18 00:33:33;;;;;;;20.50;11.65;;;7.70;83.60;;;;;;4937983;29;20047;-77
2022/04/18 00:36:00;;;;;;;22.75;10.32;;;7.60;84.20;;;;;;4955137;29;20043;-77
2022/04/18 00:38:26;;;;;;;20.48;11.73;;;7.60;85.30;;;;;;4954733;29;20054;-77
2022/04/18 00:40:52;;;;;;;25.27;11.00;;;7.60;86.30;;;;;;4937381;29;20059;-78
2022/04/18 00:43:17;;;;;;;20.80;11.60;;;7.60;86.90;;;;;;4954663;29;20051;-76
2022/04/18 00:45:43;;;;;;;20.42;11.60;;;7.60;87.80;;;;;;4954750;29;20119;-77
2022/04/18 00:48:08;;;;;;;20.48;11.70;;;7.50;88.70;;;;;;4937086;29;20082;-76
2022/04/18 00:50:37;;;;;;;18.17;11.80;;;7.50;88.00;;;;;;4937453;29;20055;-77
2022/04/18 00:53:04;;;;;;;17.83;10.95;;;7.50;88.90;;;;;;4937174;29;20070;-77
2022/04/18 00:55:33;;;;;;;19.83;11.48;;;7.50;89.90;;;;;;4937330;29;20083;-77
2022/04/18 00:58:01;;;;;;;21.55;11.88;;;7.50;90.20;;;;;;4954145;29;20058;-78
2022/04/18 01:00:27;;;;;;;19.63;11.15;;;7.40;90.40;;;;;;4954105;29;20051;-77
2022/04/18 01:02:53;;;;;;;20.02;11.18;;;7.40;90.90;;;;;;4937241;29;20058;-75
2022/04/18 01:05:18;;;;;;;18.88;11.65;;;7.40;91.00;;;;;;4954571;29;20718;-76
2022/04/18 01:07:44;;;;;;;20.33;11.77;;;7.40;91.10;;;;;;4937068;29;20047;-77
2022/04/18 01:10:10;;;;;;;18.70;10.93;;;7.40;91.30;;;;;;4936878;29;20047;-76
2022/04/18 01:12:36;;;;;;;18.20;11.13;;;7.40;92.10;;;;;;4953967;29;20043;-77
2022/04/18 01:15:02;;;;;;;17.77;11.82;;;7.40;92.10;;;;;;4953896;28;20138;-75
2022/04/18 01:17:27;;;;;;;20.42;11.73;;;7.40;92.20;;;;;;4937002;29;20422;-76
2022/04/18 01:19:53;;;;;;;16.35;10.70;;;7.30;92.60;;;;;;4953773;29;20043;-77
2022/04/18 01:22:19;;;;;;;19.60;12.07;;;7.30;92.50;;;;;;4954226;29;20039;-77
2022/04/18 01:30:15;;;;;;;19.60;11.23;;;7.30;93.30;;;;;;4953439;28;20086;-76
2022/04/18 01:32:42;;;;;;;17.38;10.70;;;7.20;93.50;;;;;;4936753;29;20302;-74
2022/04/18 01:35:09;;;;;;;17.55;11.13;;;7.30;93.40;;;;;;4920740;29;20582;-77
2022/04/18 01:37:36;;;;;;;19.85;10.95;;;7.20;93.90;;;;;;4936828;29;20137;-78
2022/04/18 01:40:03;;;;;;;20.70;11.98;;;7.20;94.00;;;;;;4953696;29;20042;-76
2022/04/18 01:42:29;;;;;;;21.73;10.88;;;7.20;94.30;;;;;;4953198;29;20051;-76
2022/04/18 01:44:55;;;;;;;21.77;12.05;;;7.20;94.40;;;;;;4952829;29;20758;-77
2022/04/18 01:47:21;;;;;;;20.75;12.20;;;7.10;94.50;;;;;;4953780;29;20051;-75
2022/04/18 01:49:46;;;;;;;25.70;12.13;;;7.10;94.70;;;;;;4953626;29;20109;-77
2022/04/18 01:52:12;;;;;;;19.58;11.63;;;7.10;95.00;;;;;;4936235;29;20039;-76
2022/04/18 01:54:37;;;;;;;22.05;13.27;;;7.10;95.20;;;;;;4936515;29;20047;-77
2022/04/18 01:57:04;;;;;;;22.88;12.45;;;7.10;95.60;;;;;;4936087;29;20510;-77
2022/04/18 01:59:29;;;;;;;22.85;13.27;;;7.00;96.00;;;;;;4935771;29;20051;-77
2022/04/18 02:01:55;;;;;;;20.60;12.32;;;7.00;95.60;;;;;;4935445;29;20399;-75
2022/04/18 02:04:20;;;;;;;19.65;12.77;;;7.00;95.90;;;;;;4953127;29;20043;-75
2022/04/18 02:06:46;;;;;;;24.15;12.77;;;7.00;96.00;;;;;;4953328;29;20126;-77
2022/04/18 02:09:12;;;;;;;21.15;12.70;;;6.90;96.50;;;;;;4935799;29;20047;-76
2022/04/18 02:11:37;;;;;;;22.58;12.93;;;6.90;96.30;;;;;;4952737;29;20505;-79
2022/04/18 02:14:03;;;;;;;21.83;13.13;;;6.90;96.60;;;;;;4934816;29;20047;-77
2022/04/18 02:16:29;;;;;;;23.73;13.57;;;6.90;96.80;;;;;;4919094;29;20087;-77
2022/04/18 02:18:55;;;;;;;23.63;12.93;;;6.90;96.90;;;;;;4952804;29;20122;-76
2022/04/18 02:21:21;;;;;;;24.92;12.57;;;6.80;96.90;;;;;;4952494;29;20149;-77
2022/04/18 02:23:46;;;;;;;24.45;12.85;;;6.80;97.30;;;;;;4935353;29;20098;-76
2022/04/18 02:26:12;;;;;;;19.30;12.52;;;6.80;97.20;;;;;;4935113;29;20055;-77
2022/04/18 02:28:38;;;;;;;18.95;12.30;;;6.80;97.50;;;;;;4952697;29;20059;-77
2022/04/18 02:31:04;;;;;;;21.63;12.52;;;6.70;97.70;;;;;;4935259;29;20043;-78
2022/04/18 02:33:29;;;;;;;22.25;12.00;;;6.70;97.90;;;;;;4935256;29;20062;-78
2022/04/18 02:35:55;;;;;;;25.05;13.57;;;6.70;97.80;;;;;;4935652;29;20058;-76
2022/04/18 02:38:21;;;;;;;25.38;13.60;;;6.70;98.50;;;;;;4935488;29;20057;-79
2022/04/18 02:40:47;;;;;;;26.42;13.95;;;6.60;98.20;;;;;;4952791;29;20155;-77
2022/04/18 02:43:12;;;;;;;26.45;14.00;;;6.60;98.30;;;;;;4951815;28;20035;-77
2022/04/18 02:45:38;;;;;;;23.75;13.48;;;6.60;98.40;;;;;;4952636;29;20043;-78
2022/04/18 02:48:04;;;;;;;23.55;14.15;;;6.60;98.60;;;;;;4952606;29;20051;-77
2022/04/18 02:50:30;;;;;;;24.33;13.75;;;6.50;98.60;;;;;;4934750;29;20047;-78
2022/04/18 02:52:56;;;;;;;24.23;13.65;;;6.50;98.90;;;;;;4952384;29;20058;-77
2022/04/18 02:55:23;;;;;;;27.52;13.85;;;6.50;99.00;;;;;;4934758;29;20055;-77
2022/04/18 02:57:49;;;;;;;22.38;12.68;;;6.60;99.40;;;;;;4967577;28;20070;-79
2022/04/18 03:00:16;;;;;;;27.65;13.13;;;6.40;99.10;;;;;;4926970;29;20051;-77
2022/04/18 03:02:41;;;;;;;25.55;13.13;;;6.40;99.30;;;;;;4907416;29;20065;-76
2022/04/18 03:05:09;;;;;;;22.77;12.80;;;6.40;99.40;;;;;;4934504;29;20110;-78
2022/04/18 03:07:34;;;;;;;27.35;13.73;;;6.30;99.60;;;;;;4952393;29;20039;-76
2022/04/18 03:10:00;;;;;;;25.02;13.30;;;6.30;99.60;;;;;;4952448;29;20799;-77
2022/04/18 03:12:27;;;;;;;23.25;13.15;;;6.40;99.60;;;;;;4918981;29;20082;-77
2022/04/18 03:14:52;;;;;;;20.75;12.77;;;6.30;99.70;;;;;;4951785;28;20114;-77
2022/04/18 03:17:18;;;;;;;22.25;12.70;;;6.30;99.90;;;;;;4934710;29;20444;-77
2022/04/18 03:19:44;;;;;;;22.05;13.05;;;6.30;99.90;;;;;;4952207;29;20048;-77
2022/04/18 03:22:10;;;;;;;22.35;13.07;;;6.20;99.90;;;;;;4934564;29;20059;-77
2022/04/18 03:24:35;;;;;;;25.60;13.60;;;6.20;99.90;;;;;;4952274;29;20138;-76
2022/04/18 03:27:02;;;;;;;22.83;13.75;;;6.20;99.90;;;;;;4952054;29;20043;-77
2022/04/18 03:29:28;;;;;;;21.90;12.85;;;6.20;99.90;;;;;;4934790;29;20546;-77
2022/04/18 03:31:54;;;;;;;24.55;13.57;;;6.20;99.90;;;;;;4952092;29;20047;-77
2022/04/18 03:34:20;;;;;;;25.75;13.07;;;6.20;99.90;;;;;;4951466;29;20039;-77
2022/04/18 03:42:14;;;;;;;24.15;13.80;;;6.10;99.90;;;;;;4952203;29;20083;-77
2022/04/18 03:44:44;;;;;;;22.50;12.32;;;6.10;99.90;;;;;;4935278;29;20090;-77
2022/04/18 03:47:16;;;;;;;25.52;13.30;;;6.10;99.90;;;;;;4951793;29;20050;-77
2022/04/18 03:49:42;;;;;;;21.95;12.68;;;6.10;99.90;;;;;;4934266;29;20055;-77
2022/04/18 03:52:08;;;;;;;26.52;13.23;;;6.00;99.90;;;;;;4951879;29;20127;-78
2022/04/18 03:54:35;;;;;;;24.17;13.40;;;6.10;99.90;;;;;;4935515;29;20042;-77
2022/04/18 03:57:04;;;;;;;27.48;14.48;;;6.00;99.90;;;;;;4937833;29;20051;-76
2022/04/18 03:59:30;;;;;;;27.52;13.93;;;6.00;99.90;;;;;;4955454;29;20050;-78
2022/04/18 04:01:55;;;;;;;30.33;15.18;;;6.00;99.90;;;;;;4938196;29;20422;-77
2022/04/18 04:04:21;;;;;;;26.55;14.00;;;6.00;99.90;;;;;;4937942;29;20061;-76
2022/04/18 04:06:47;;;;;;;30.23;15.02;;;6.00;99.90;;;;;;4955755;29;20113;-77
2022/04/18 04:09:12;;;;;;;28.30;14.35;;;5.90;99.90;;;;;;4955497;29;20054;-76
2022/04/18 04:11:38;;;;;;;31.45;14.93;;;5.90;99.90;;;;;;4955277;29;20043;-78
2022/04/18 04:14:04;;;;;;;31.98;15.88;;;5.90;99.90;;;;;;4955526;29;20143;-77
2022/04/18 04:16:30;;;;;;;35.80;15.30;;;5.90;99.90;;;;;;4938073;29;20462;-77
2022/04/18 04:18:56;;;;;;;33.83;15.32;;;5.80;99.90;;;;;;4955287;29;20051;-77
2022/04/18 04:21:22;;;;;;;34.03;15.93;;;5.80;99.90;;;;;;4937732;29;20106;-77
2022/04/18 04:23:47;;;;;;;27.45;14.65;;;5.80;99.90;;;;;;4955565;29;20051;-76
2022/04/18 04:26:13;;;;;;;24.35;12.88;;;5.80;99.90;;;;;;4955171;29;20054;-77
2022/04/18 04:28:39;;;;;;;31.73;14.38;;;5.80;99.90;;;;;;4937502;29;20052;-78
2022/04/18 04:31:04;;;;;;;24.08;14.15;;;5.80;99.90;;;;;;4955409;29;20464;-77
2022/04/18 04:33:31;;;;;;;29.38;13.75;;;5.80;99.90;;;;;;4954470;29;20059;-78
2022/04/18 04:36:00;;;;;;;28.15;12.63;;;5.80;99.90;;;;;;4954765;29;20049;-77
2022/04/18 04:38:27;;;;;;;27.63;12.60;;;5.80;99.90;;;;;;4937456;29;20050;-77
2022/04/18 04:40:54;;;;;;;21.88;11.52;;;5.70;99.90;;;;;;4954578;29;20102;-77
2022/04/18 04:43:27;;;;;;;22.25;11.98;;;5.70;99.90;;;;;;4954578;29;20047;-80
2022/04/18 04:45:54;;;;;;;18.33;11.25;;;5.70;99.90;;;;;;4954324;29;20491;-77
2022/04/18 04:48:20;;;;;;;20.58;11.18;;;5.70;99.90;;;;;;4937146;29;20066;-77
2022/04/18 04:50:46;;;;;;;17.80;10.90;;;5.70;99.90;;;;;;4954442;29;20055;-76
2022/04/18 04:53:12;;;;;;;20.52;10.73;;;5.70;99.90;;;;;;4954456;29;20399;-77
2022/04/18 04:55:37;;;;;;;20.50;11.02;;;5.70;99.90;;;;;;4937035;29;20078;-76
2022/04/18 04:58:03;;;;;;;19.80;10.35;;;5.70;99.90;;;;;;4921690;29;20051;-76
2022/04/18 05:00:29;;;;;;;21.27;11.10;;;5.70;99.90;;;;;;4954567;29;20062;-77
2022/04/18 05:02:56;;;;;;;21.38;11.07;;;5.70;99.90;;;;;;4936761;29;20475;-77
2022/04/18 05:05:22;;;;;;;17.40;10.20;;;5.80;99.90;;;;;;4953801;28;20503;-76
2022/04/18 05:07:48;;;;;;;17.77;10.30;;;5.80;99.90;;;;;;4936804;29;20058;-78
2022/04/18 05:10:15;;;;;;;17.08;10.40;;;5.80;99.90;;;;;;4937258;29;20043;-77
2022/04/18 05:12:41;;;;;;;17.70;9.80;;;5.80;99.90;;;;;;4953470;29;20807;-77
2022/04/18 05:15:07;;;;;;;20.02;10.63;;;5.80;99.90;;;;;;4952843;29;20061;-77
2022/04/18 05:17:33;;;;;;;16.73;9.60;;;5.90;99.90;;;;;;4936753;29;20062;-77
2022/04/18 05:19:58;;;;;;;15.90;10.32;;;5.90;99.90;;;;;;4937232;29;20035;-78
2022/04/18 05:22:24;;;;;;;19.30;10.88;;;5.90;99.90;;;;;;4953898;29;20842;-78
2022/04/18 05:24:51;;;;;;;16.33;9.80;;;6.00;99.90;;;;;;4936270;29;20047;-78
2022/04/18 05:27:17;;;;;;;15.40;9.68;;;6.00;99.90;;;;;;4953800;29;20087;-80
2022/04/18 05:29:43;;;;;;;16.35;10.20;;;6.10;99.90;;;;;;4936879;29;20059;-76
2022/04/18 05:32:10;;;;;;;19.85;10.32;;;6.10;99.90;;;;;;4953851;29;20054;-77
2022/04/18 05:34:35;;;;;;;17.45;9.65;;;6.10;99.90;;;;;;4953046;29;20051;-77
2022/04/18 05:37:01;;;;;;;15.95;10.05;;;6.20;99.90;;;;;;4936841;29;20043;-77
2022/04/18 05:39:27;;;;;;;14.88;9.23;;;6.30;99.90;;;;;;4953327;29;20043;-78
2022/04/18 05:41:53;;;;;;;15.13;8.93;;;6.40;99.90;;;;;;4953403;29;20491;-79
2022/04/18 05:44:19;;;;;;;17.23;10.23;;;6.40;99.90;;;;;;4968399;28;20039;-78
2022/04/18 05:46:45;;;;;;;15.23;9.45;;;6.40;99.90;;;;;;4953295;29;20538;-77
2022/04/18 05:49:10;;;;;;;14.27;9.20;;;6.50;99.90;;;;;;4936177;29;20051;-78
2022/04/18 05:51:38;;;;;;;18.58;9.43;;;6.60;99.90;;;;;;4936331;29;20051;-78
2022/04/18 05:54:04;;;;;;;15.43;9.70;;;6.70;99.90;;;;;;4952980;29;20047;-77
2022/04/18 05:56:30;;;;;;;17.27;9.30;;;6.80;99.90;;;;;;4953368;29;20130;-79
2022/04/18 05:58:56;;;;;;;14.57;8.63;;;6.80;99.90;;;;;;4968458;28;20055;-77
2022/04/18 06:01:22;;;;;;;15.77;9.38;;;7.10;99.90;;;;;;4953328;29;20082;-77
2022/04/18 06:03:48;;;;;;;14.35;9.18;;;7.00;99.90;;;;;;4953485;29;20089;-77
2022/04/18 06:06:15;;;;;;;16.40;9.57;;;7.00;99.90;;;;;;4935492;29;20058;-77
2022/04/18 06:08:41;;;;;;;15.38;9.05;;;7.10;99.90;;;;;;4953416;29;20102;-78
2022/04/18 06:11:07;;;;;;;15.80;9.07;;;7.20;99.90;;;;;;4952860;29;20047;-78
2022/04/18 06:13:33;;;;;;;16.40;9.82;;;7.30;99.90;;;;;;4935453;29;20058;-76
2022/04/18 06:15:59;;;;;;;15.60;9.02;;;7.40;99.90;;;;;;4952637;28;20129;-78
2022/04/18 06:18:25;;;;;;;15.75;9.77;;;7.80;99.90;;;;;;4951996;28;20058;-78
2022/04/18 06:20:51;;;;;;;14.75;9.05;;;7.50;99.90;;;;;;4935929;29;20047;-77
2022/04/18 06:23:17;;;;;;;13.40;8.98;;;7.70;99.90;;;;;;4952463;29;20055;-76
2022/04/18 06:25:43;;;;;;;13.68;8.52;;;7.70;99.90;;;;;;4952438;29;20126;-78
2022/04/18 06:28:10;;;;;;;17.75;9.10;;;7.90;99.90;;;;;;4935117;29;20410;-77
2022/04/18 06:30:36;;;;;;;14.05;9.13;;;8.00;99.90;;;;;;4952914;29;20054;-78
2022/04/18 06:33:01;;;;;;;15.80;8.30;;;8.00;99.90;;;;;;4967676;28;20043;-78
2022/04/18 06:35:27;;;;;;;13.98;9.18;;;8.10;99.90;;;;;;4935421;29;20054;-76
2022/04/18 06:37:53;;;;;;;13.98;8.60;;;8.50;99.90;;;;;;4952261;29;20035;-78
2022/04/18 06:40:18;;;;;;;14.65;8.68;;;8.30;99.90;;;;;;4952738;29;20047;-77
2022/04/18 06:42:45;;;;;;;14.55;8.63;;;8.40;99.90;;;;;;4918999;29;20138;-78
2022/04/18 06:45:10;;;;;;;12.82;8.50;;;8.50;99.90;;;;;;4935389;29;20091;-80
2022/04/18 06:47:36;;;;;;;16.15;8.60;;;8.60;99.90;;;;;;4967259;28;20444;-80
2022/04/18 06:50:08;;;;;;;13.90;8.43;;;8.70;99.90;;;;;;4952302;29;20182;-77
2022/04/18 06:52:46;;;;;;;13.55;8.30;;;8.80;99.90;;;;;;4952585;29;20114;-77
2022/04/18 06:55:11;;;;;;;13.38;8.98;;;8.90;99.90;;;;;;4966786;28;20392;-77
2022/04/18 06:57:38;;;;;;;14.15;9.18;;;9.00;99.90;;;;;;4966883;28;20058;-78
2022/04/18 07:00:05;;;;;;;14.90;8.68;;;9.10;99.90;;;;;;4952320;29;20043;-79
2022/04/18 07:02:31;;;;;;;14.15;8.25;;;9.30;99.90;;;;;;4951648;29;20047;-79
2022/04/18 07:04:56;;;;;;;12.98;8.35;;;9.40;99.90;;;;;;4952576;29;20046;-78
2022/04/18 07:07:22;;;;;;;14.10;8.18;;;9.50;99.60;;;;;;4919186;29;20142;-79
2022/04/18 07:09:48;;;;;;;14.10;8.52;;;9.90;99.30;;;;;;4952170;29;20487;-80
2022/04/18 07:12:13;;;;;;;17.83;9.20;;;9.70;99.10;;;;;;4952086;29;20087;-78
2022/04/18 07:14:39;;;;;;;15.75;9.20;;;9.80;98.90;;;;;;4952280;29;20051;-79
2022/04/18 07:17:06;;;;;;;12.95;8.95;;;9.90;98.50;;;;;;4952096;29;20059;-78
2022/04/18 07:19:33;;;;;;;13.52;8.30;;;10.00;98.00;;;;;;4950945;29;20047;-76
2022/04/18 07:21:58;;;;;;;13.93;8.45;;;10.20;97.90;;;;;;4951965;29;20131;-79
2022/04/18 07:24:24;;;;;;;13.48;8.00;;;10.20;97.50;;;;;;4952335;29;20492;-79
2022/04/18 07:26:50;;;;;;;11.63;7.82;;;10.40;97.70;;;;;;4935322;29;20271;-80
2022/04/18 07:29:16;;;;;;;13.10;7.22;;;10.50;97.30;;;;;;4921222;29;20086;-78
2022/04/18 07:31:42;;;;;;;12.85;7.53;;;10.60;97.40;;;;;;4956184;29;20047;-82
2022/04/18 07:34:07;;;;;;;12.02;7.60;;;10.60;97.40;;;;;;4954785;29;20137;-79
2022/04/18 07:36:33;;;;;;;11.63;7.18;;;10.80;97.30;;;;;;4954734;29;20201;-80
2022/04/18 07:38:59;;;;;;;11.60;7.03;;;11.00;96.30;;;;;;4952871;29;20546;-78
2022/04/18 07:41:27;;;;;;;11.40;7.32;;;11.10;96.50;;;;;;4955989;29;20043;-81
2022/04/18 07:43:55;;;;;;;12.00;7.63;;;11.30;95.40;;;;;;4955650;29;20130;-79
2022/04/18 07:46:21;;;;;;;12.18;7.40;;;11.80;95.70;;;;;;4956123;29;20074;-80
2022/04/18 07:48:49;;;;;;;13.43;6.90;;;11.40;94.40;;;;;;4955830;29;20403;-81
2022/04/18 07:54:00;;;;;;;14.65;6.95;;;11.70;94.50;;;;;;4955795;29;20090;-79
2022/04/18 07:56:26;;;;;;;11.60;6.63;;;11.90;94.10;;;;;;4938571;29;20051;-78
2022/04/18 07:58:52;;;;;;;11.50;6.63;;;12.30;93.90;;;;;;4955434;29;20057;-78
2022/04/18 08:01:19;;;;;;;11.88;7.15;;;12.40;93.70;;;;;;4936792;29;20065;-79
2022/04/18 08:03:45;;;;;;;10.40;6.13;;;12.50;93.40;;;;;;4937301;29;20055;-78
2022/04/18 08:06:11;;;;;;;9.43;6.18;;;12.70;92.30;;;;;;4952137;29;20039;-78
2022/04/18 08:08:37;;;;;;;10.73;6.28;;;12.90;91.90;;;;;;4938194;29;20062;-78
2022/04/18 08:11:03;;;;;;;10.48;6.63;;;13.20;92.10;;;;;;4938310;29;20450;-80
2022/04/18 08:13:29;;;;;;;12.00;6.90;;;13.50;90.70;;;;;;4937930;29;20055;-79
2022/04/18 08:15:55;;;;;;;10.48;6.43;;;13.90;89.90;;;;;;4954382;29;20071;-78
2022/04/18 08:18:22;;;;;;;9.30;6.43;;;14.10;88.10;;;;;;4955160;29;20043;-78
2022/04/18 08:20:49;;;;;;;13.70;6.95;;;14.40;86.20;;;;;;4970171;28;20154;-78
2022/04/18 08:23:14;;;;;;;10.32;5.85;;;14.50;85.40;;;;;;4955262;29;20051;-81
2022/04/18 08:25:40;;;;;;;11.95;6.82;;;15.00;84.30;;;;;;4955092;29;20430;-78
2022/04/18 08:28:06;;;;;;;11.13;5.90;;;15.10;83.90;;;;;;4937190;29;20043;-82
2022/04/18 08:30:32;;;;;;;9.13;6.18;;;15.30;82.30;;;;;;4937021;29;20046;-78
2022/04/18 08:32:58;;;;;;;13.43;6.00;;;15.30;81.00;;;;;;4937712;29;20089;-80
2022/04/18 08:35:23;;;;;;;12.13;6.13;;;15.50;80.20;;;;;;4954673;29;20110;-78
2022/04/18 08:37:49;;;;;;;9.35;5.93;;;15.80;80.60;;;;;;4954817;29;20522;-79
2022/04/18 08:40:15;;;;;;;14.90;6.03;;;15.90;80.10;;;;;;4936730;29;20054;-79
2022/04/18 08:42:41;;;;;;;11.63;6.55;;;16.20;78.50;;;;;;4954827;29;20514;-81
2022/04/18 08:45:13;;;;;;;11.60;5.85;;;16.50;77.50;;;;;;4921565;29;20434;-78
2022/04/18 08:53:12;;;;;;;9.63;6.20;;;17.10;73.00;;;;;;4954644;29;20062;-79
2022/04/18 08:55:38;;;;;;;13.38;6.45;;;17.20;72.50;;;;;;4954327;29;20443;-81
2022/04/18 08:58:07;;;;;;;10.02;6.60;;;17.20;72.80;;;;;;4954399;29;20221;-81
2022/04/18 09:00:33;;;;;;;10.25;6.18;;;17.30;73.60;;;;;;4954435;29;20549;-79
2022/04/18 09:02:59;;;;;;;9.48;5.75;;;17.40;75.10;;;;;;4937015;29;20059;-82
2022/04/18 09:05:25;;;;;;;12.15;6.47;;;17.50;72.80;;;;;;4937498;29;20154;-79
2022/04/18 09:08:03;;;;;;;9.48;5.97;;;17.40;71.00;;;;;;4956438;29;20054;-81
2022/04/18 09:10:29;;;;;;;11.57;5.97;;;17.60;71.80;;;;;;4956498;29;20047;-81
2022/04/18 09:13:07;;;;;;;8.60;5.78;;;17.80;70.30;;;;;;4974279;23;20053;-80
2022/04/18 09:15:41;;;;;;;11.35;6.25;;;17.90;71.10;;;;;;4955125;28;20533;-79
2022/04/18 09:18:18;;;;;;;9.48;5.95;;;18.30;70.10;;;;;;4956300;28;20054;-80
2022/04/18 09:20:49;;;;;;;10.48;5.63;;;18.20;69.70;;;;;;4956464;28;20046;-81
2022/04/18 09:23:30;;;;;;;9.77;5.95;;;18.20;67.70;;;;;;4973931;28;20086;-79
2022/04/18 09:26:01;;;;;;;10.20;6.60;;;18.30;67.30;;;;;;4956091;28;20133;-80
2022/04/18 09:28:32;;;;;;;12.52;5.47;;;18.40;68.10;;;;;;4973262;28;20058;-80
2022/04/18 09:31:10;;;;;;;9.35;5.53;;;18.50;66.80;;;;;;4955812;28;20114;-80
2022/04/18 09:33:44;;;;;;;8.23;5.40;;;18.70;66.60;;;;;;4973116;28;20065;-79
2022/04/18 09:36:12;;;;;;;10.23;5.18;;;18.70;66.60;;;;;;4955562;28;20090;-80
2022/04/18 09:38:58;;;;;;;13.80;5.80;;;19.00;65.40;;;;;;4988216;28;20410;-80
2022/04/18 09:41:28;;;;;;;10.05;5.38;;;19.00;65.10;;;;;;4938965;28;20065;-80
2022/04/18 09:43:55;;;;;;;9.43;5.75;;;18.90;63.60;;;;;;4973324;28;20050;-82
2022/04/18 09:46:21;;;;;;;11.82;5.90;;;19.20;65.40;;;;;;4972638;28;20182;-79
2022/04/18 09:48:49;;;;;;;9.75;5.22;;;19.30;65.10;;;;;;4971690;28;20051;-81
2022/04/18 09:51:16;;;;;;;9.93;6.20;;;19.50;64.30;;;;;;4973396;28;20055;-80
2022/04/18 09:53:45;;;;;;;10.13;5.82;;;19.80;63.20;;;;;;4972894;28;20139;-77
2022/04/18 09:56:15;;;;;;;7.57;4.70;;;19.90;62.80;;;;;;4972696;28;20125;-78
2022/04/18 09:58:41;;;;;;;8.48;5.72;;;20.20;62.80;;;;;;4972908;28;20043;-80
2022/04/18 10:01:07;;;;;;;8.95;4.95;;;20.20;62.20;;;;;;4972673;28;20078;-79
2022/04/18 10:03:34;;;;;;;11.02;4.82;;;20.30;60.30;;;;;;4972752;28;20105;-81
2022/04/18 10:06:02;;;;;;;9.30;4.80;;;20.50;62.60;;;;;;4972344;28;20047;-79
2022/04/18 10:08:28;;;;;;;7.80;4.32;;;20.40;60.60;;;;;;4972065;28;20078;-77
2022/04/18 10:10:57;;;;;;;10.70;5.40;;;20.50;61.30;;;;;;4972121;28;20092;-80
2022/04/18 10:13:23;;;;;;;7.50;4.47;;;20.50;60.10;;;;;;4972364;28;20101;-80
2022/04/18 10:15:51;;;;;;;7.15;4.20;;;20.40;59.90;;;;;;4954771;28;20406;-80
2022/04/18 10:18:17;;;;;;;7.05;4.40;;;20.60;59.10;;;;;;4972483;28;20078;-80
2022/04/18 10:21:04;;;;;;;6.03;4.43;;;20.80;58.80;;;;;;4954688;28;20085;-79
2022/04/18 10:23:48;;;;;;;6.45;3.38;;;20.80;57.00;;;;;;4972072;28;20498;-79
2022/04/18 10:26:45;;;;;;;7.78;4.28;;;21.00;55.70;;;;;;4954832;28;20051;-79
2022/04/18 10:29:18;;;;;;;7.32;3.60;;;21.00;57.10;;;;;;4971782;28;20050;-81
2022/04/18 10:31:45;;;;;;;6.43;3.50;;;21.10;55.20;;;;;;4972275;28;20054;-81
2022/04/18 10:34:15;;;;;;;6.50;3.60;;;21.20;56.40;;;;;;4954692;28;20059;-81
2022/04/18 10:36:47;;;;;;;5.38;3.25;;;21.30;56.40;;;;;;4954125;28;20061;-82
2022/04/18 10:39:16;;;;;;;5.85;3.78;;;21.30;54.70;;;;;;4960774;28;20074;-79
2022/04/18 10:41:44;;;;;;;6.65;3.50;;;21.40;55.60;;;;;;4979399;28;20047;-82
2022/04/18 10:44:10;;;;;;;7.78;3.55;;;21.60;54.60;;;;;;4976549;28;20065;-79
2022/04/18 10:46:37;;;;;;;5.63;3.22;;;21.50;54.30;;;;;;4973345;28;20383;-79
2022/04/18 10:49:05;;;;;;;10.63;3.63;;;21.50;53.30;;;;;;4955406;28;20061;-80
2022/04/18 10:51:41;;;;;;;5.88;3.13;;;21.60;53.50;;;;;;4954094;28;20071;-91
2022/04/18 10:54:25;;;;;;;5.18;2.85;;;21.60;51.10;;;;;;4955013;28;20057;-87
2022/04/18 10:56:59;;;;;;;5.20;3.40;;;21.90;52.90;;;;;;4954756;28;20053;-86
2022/04/18 10:59:39;;;;;;;8.43;3.05;;;21.80;52.90;;;;;;4971792;28;20046;-81
2022/04/18 11:02:06;;;;;;;5.80;3.47;;;22.00;51.60;;;;;;4954248;28;20069;-90
2022/04/18 11:04:38;;;;;;;6.57;3.15;;;21.90;52.00;;;;;;4972071;28;20061;-89
2022/04/18 11:07:06;;;;;;;4.90;2.90;;;21.90;51.40;;;;;;4972168;28;20101;-86
2022/04/18 11:09:52;;;;;;;5.95;2.97;;;21.70;50.90;;;;;;4970639;28;20054;-87
2022/04/18 11:12:20;;;;;;;4.85;2.90;;;21.90;52.50;;;;;;4954015;28;20051;-84
2022/04/18 11:14:47;;;;;;;5.30;2.35;;;22.20;50.90;;;;;;4954575;28;20061;-86
2022/04/18 11:17:24;;;;;;;6.50;2.47;;;22.20;49.50;;;;;;4954809;28;20074;-92
2022/04/18 11:19:50;;;;;;;6.10;2.58;;;22.50;49.10;;;;;;4958401;28;20043;-86
2022/04/18 11:22:24;;;;;;;4.80;2.08;;;22.30;49.10;;;;;;4971684;28;20799;-83
2022/04/18 11:24:51;;;;;;;4.13;1.98;;;22.30;49.30;;;;;;4986541;28;20047;-84
2022/04/18 11:27:25;;;;;;;5.10;2.60;;;22.20;49.10;;;;;;4954424;28;20059;-90
2022/04/18 11:30:09;;;;;;;6.60;2.33;;;22.20;49.40;;;;;;4971772;28;20134;-95
2022/04/18 11:32:39;;;;;;;4.03;2.55;;;22.10;47.70;;;;;;4971971;28;20225;-86
2022/04/18 11:35:07;;;;;;;4.93;2.75;;;22.20;48.50;;;;;;4971655;28;20055;-86
2022/04/18 11:37:43;;;;;;;4.70;2.95;;;22.20;50.40;;;;;;4954770;28;20133;-86
2022/04/18 11:40:15;;;;;;;5.38;2.78;;;22.20;48.20;;;;;;4953753;28;20054;-83
2022/04/18 11:42:42;;;;;;;5.35;2.55;;;22.50;47.80;;;;;;4971488;28;20058;-86
2022/04/18 11:45:29;;;;;;;4.07;2.33;;;22.50;48.30;;;;;;4971512;28;20047;-88
2022/04/18 11:48:07;;;;;;;4.45;2.58;;;22.40;47.10;;;;;;4938201;28;20053;-87
2022/04/18 11:50:36;;;;;;;4.95;2.53;;;22.30;47.10;;;;;;4971018;28;20498;-80
2022/04/18 11:53:03;;;;;;;4.63;2.58;;;22.30;47.70;;;;;;4971476;28;20050;-80
2022/04/18 11:55:30;;;;;;;3.58;2.20;;;22.50;47.30;;;;;;4971062;28;20086;-80
2022/04/18 11:57:56;;;;;;;5.75;2.38;;;22.60;47.20;;;;;;4971372;28;20046;-79
2022/04/18 12:08:44;;;;;;;7.53;3.00;;;22.70;46.70;;;;;;4970847;28;20101;-81
2022/04/18 12:11:11;;;;;;;5.00;2.60;;;22.70;46.10;;;;;;4937908;28;20458;-80
2022/04/18 12:13:47;;;;;;;4.78;2.40;;;22.70;46.90;;;;;;4919783;28;20055;-81
2022/04/18 12:16:19;;;;;;;5.28;3.20;;;22.80;47.90;;;;;;4988242;28;20062;-80
2022/04/18 12:18:45;;;;;;;7.18;3.05;;;22.80;46.40;;;;;;4974718;28;20034;-81
2022/04/18 12:21:12;;;;;;;6.07;3.20;;;22.90;47.40;;;;;;4974276;28;20454;-82
2022/04/18 12:23:38;;;;;;;4.65;3.00;;;22.90;46.00;;;;;;4974707;28;20060;-80
2022/04/18 12:26:12;;;;;;;6.85;3.42;;;23.00;45.20;;;;;;4973522;28;20043;-77
2022/04/18 12:28:38;;;;;;;5.72;2.83;;;22.90;44.90;;;;;;4956182;28;20058;-80
2022/04/18 12:31:09;;;;;;;7.72;2.92;;;23.10;45.90;;;;;;4974215;28;20093;-79
2022/04/18 12:33:48;;;;;;;3.90;2.38;;;23.40;45.50;;;;;;4973068;28;20054;-80
2022/04/18 12:36:29;;;;;;;8.23;2.67;;;23.70;45.00;;;;;;4956827;28;20086;-79
2022/04/18 12:38:54;;;;;;;6.22;2.45;;;23.80;44.90;;;;;;4956948;28;20139;-78
2022/04/18 12:41:34;;;;;;;5.15;2.40;;;23.90;44.60;;;;;;4973791;28;20043;-80
2022/04/18 12:44:01;;;;;;;4.22;2.35;;;24.00;43.90;;;;;;4974321;28;20053;-83
2022/04/18 12:46:31;;;;;;;7.15;3.33;;;24.20;43.70;;;;;;4974055;28;20046;-76
2022/04/18 12:49:02;;;;;;;4.50;2.40;;;24.00;44.70;;;;;;4958036;28;20402;-80
2022/04/18 12:51:39;;;;;;;4.97;2.90;;;23.90;45.10;;;;;;4960174;28;20043;-78
2022/04/18 12:54:16;;;;;;;4.15;2.67;;;24.00;44.20;;;;;;4978273;28;20121;-80
2022/04/18 12:56:48;;;;;;;6.05;2.85;;;24.00;42.60;;;;;;4983195;28;20089;-78
2022/04/18 12:59:21;;;;;;;5.38;2.63;;;24.30;42.90;;;;;;4975186;28;20093;-80
2022/04/18 13:01:46;;;;;;;6.07;2.47;;;24.80;44.60;;;;;;4976737;28;20046;-79
2022/04/18 13:04:23;;;;;;;4.25;2.47;;;24.70;42.70;;;;;;4961640;28;20065;-80
2022/04/18 13:06:55;;;;;;;4.68;2.63;;;24.60;40.70;;;;;;4975221;28;20061;-79
2022/04/18 13:09:20;;;;;;;6.47;2.80;;;24.80;41.80;;;;;;4956437;28;20039;-79
2022/04/18 13:11:46;;;;;;;5.60;2.85;;;24.80;42.60;;;;;;4973747;28;20047;-79